Other Surface Observations
Issued by NWS Great Falls, MT

Home | Current Version | Previous Version | Text Only | Print | Product List | Glossary On
Versions: 1 2 3 4 5 6 7 8 9 10 11 12 13 14 15 16 17 18 19 20 21 22 23 24 25 26 27 28 29 30 31 32 33 34 35 36 37 38 39 40 41 42 43 44 45 46 47 48 49 50
062
SXUS55 KTFX 300729
OSOTFX
AREA AWOS OBSERVATIONS
NATIONAL WEATHER SERVICE GREAT FALLS MT
0129 AM MDT THU MAR 30 2017

METAR KPWD 300730Z AUTO 00000KT 10SM 08/M01 A2978 RMK PLENTYWOOD
METAR KPO1 300730Z AUTO 00000KT 10SM 08/00 A2978 RMK POPLAR
METAR K1S3 300730Z AUTO 00000KT 10SM 11/01 A2975 RMK FORSYTH
METAR KS71 300730Z AUTO 00000KT 10SM 07/02 A2970 RMK CHINOOK
METAR K79S 300730Z AUTO 10SM 11/02 A2973 RMK FORT BENTON
METAR K38S 300730Z AUTO 30003KT 10SM 04/02 A2983 RMK DEER LODGE
METAR K3U3 300730Z AUTO 20007KT 10SM 06/00 A2981 RMK ANACONDA
METAR K6S5 300730Z AUTO 17007KT 10SM 07/03 A2983 RMK HAMILTON
METAR K88M 300730Z AUTO 16009KT 10SM 07/04 A2976 RMK EUREKA



USA.gov is the U.S. government's official web portal to all federal, state and local government web resources and services.